Time;durP1;ratioP1;P1;durP2;ratioP2;P2;SDS_P1;SDS_P2;PMS_P1;PMS_P2;Temp;Humidity;BMP_temperature;BMP_pressure;BME280_temperature;BME280_humidity;BME280_pressure;Samples;Min_cycle;Max_cycle;Signal;HPM_P1;HPM_P2
2022/04/14 00:00:05;;;;;;;15.77;7.78;;;12.70;99.90;;;;;;5108134;28;20043;-68
2022/04/14 00:02:31;;;;;;;13.68;7.60;;;12.70;99.90;;;;;;5093068;27;20105;-68
2022/04/14 00:04:57;;;;;;;13.98;7.72;;;12.70;99.90;;;;;;5110576;27;20035;-68
2022/04/14 00:07:23;;;;;;;12.45;7.70;;;13.20;99.90;;;;;;5129231;27;20039;-69
2022/04/14 00:09:49;;;;;;;14.40;7.95;;;12.60;99.90;;;;;;5130252;27;20055;-68
2022/04/14 00:12:14;;;;;;;12.65;7.97;;;12.50;99.90;;;;;;5110173;27;20035;-68
2022/04/14 00:14:40;;;;;;;11.55;7.85;;;12.50;99.90;;;;;;5106992;27;20044;-68
2022/04/14 00:17:05;;;;;;;14.48;8.07;;;12.50;99.90;;;;;;5120086;27;20043;-68
2022/04/14 00:19:31;;;;;;;18.67;8.13;;;12.50;99.90;;;;;;5111178;27;20039;-68
2022/04/14 00:21:57;;;;;;;12.80;8.27;;;12.50;99.90;;;;;;5113772;27;20570;-68
2022/04/14 00:24:22;;;;;;;14.10;8.77;;;12.50;99.90;;;;;;5101459;28;20040;-68
2022/04/14 00:26:48;;;;;;;16.75;8.88;;;12.40;99.90;;;;;;5092324;28;20083;-68
2022/04/14 00:29:13;;;;;;;15.73;8.77;;;12.40;99.90;;;;;;5107514;27;20372;-68
2022/04/14 00:31:39;;;;;;;14.65;9.15;;;12.40;99.90;;;;;;5128380;27;20051;-68
2022/04/14 00:34:05;;;;;;;13.45;9.05;;;12.50;99.90;;;;;;5110484;27;20133;-68
2022/04/14 00:36:33;;;;;;;15.48;9.05;;;12.30;99.90;;;;;;5127700;27;20092;-68
2022/04/14 00:38:59;;;;;;;14.50;8.95;;;12.30;99.90;;;;;;5129046;27;20043;-68
2022/04/14 00:41:27;;;;;;;16.05;9.40;;;12.20;99.90;;;;;;5112149;27;20050;-68
2022/04/14 00:43:53;;;;;;;13.05;9.32;;;12.20;99.90;;;;;;5117718;27;20050;-68
2022/04/14 00:46:19;;;;;;;16.63;9.60;;;12.20;99.90;;;;;;5122157;27;20082;-68
2022/04/14 00:48:46;;;;;;;17.08;10.20;;;12.20;99.90;;;;;;5118591;27;20054;-68
2022/04/14 00:51:12;;;;;;;15.35;9.50;;;12.10;99.90;;;;;;5109961;27;20047;-71
2022/04/14 00:53:39;;;;;;;14.98;9.63;;;12.10;99.90;;;;;;5116401;27;20047;-68
2022/04/14 00:56:06;;;;;;;14.45;9.57;;;12.10;99.90;;;;;;5110537;27;20537;-68
2022/04/14 00:58:33;;;;;;;15.85;10.07;;;12.00;99.90;;;;;;5127277;27;20042;-68
2022/04/14 01:01:00;;;;;;;17.17;10.27;;;12.00;99.90;;;;;;5109143;27;20051;-68
2022/04/14 01:03:26;;;;;;;17.30;10.00;;;12.00;99.90;;;;;;5128778;27;20039;-68
2022/04/14 01:05:53;;;;;;;16.10;9.85;;;12.00;99.90;;;;;;5109987;27;20308;-68
2022/04/14 01:08:19;;;;;;;17.73;11.25;;;11.90;99.90;;;;;;5127356;27;20046;-68
2022/04/14 01:10:49;;;;;;;16.90;11.07;;;12.00;99.90;;;;;;5125660;27;20035;-68
2022/04/14 01:13:18;;;;;;;18.42;10.80;;;11.90;99.90;;;;;;5119349;27;20440;-68
2022/04/14 01:15:48;;;;;;;15.43;9.90;;;12.30;99.90;;;;;;5106897;28;20545;-68
2022/04/14 01:18:17;;;;;;;14.60;10.85;;;11.90;99.90;;;;;;5121842;27;20389;-68
2022/04/14 01:20:43;;;;;;;17.52;10.25;;;11.80;99.90;;;;;;5128171;28;20031;-68
2022/04/14 01:23:10;;;;;;;15.00;11.57;;;11.80;99.90;;;;;;5125883;27;20083;-68
2022/04/14 01:25:37;;;;;;;16.58;10.85;;;11.70;99.90;;;;;;5098285;28;20154;-68
2022/04/14 01:28:04;;;;;;;17.05;11.25;;;11.70;99.90;;;;;;5128800;28;20043;-68
2022/04/14 01:30:30;;;;;;;17.40;10.75;;;11.80;99.90;;;;;;5109092;28;20058;-68
2022/04/14 01:32:56;;;;;;;19.95;11.77;;;11.70;99.90;;;;;;5127780;28;20043;-68
2022/04/14 01:35:23;;;;;;;19.52;12.15;;;11.70;99.90;;;;;;5107595;28;20510;-68
2022/04/14 01:37:50;;;;;;;18.13;11.32;;;11.70;99.90;;;;;;5091005;28;20579;-69
2022/04/14 01:40:15;;;;;;;18.08;12.48;;;11.70;99.90;;;;;;5120443;28;20036;-68
2022/04/14 01:42:41;;;;;;;18.95;11.30;;;11.70;99.90;;;;;;5108166;28;20058;-68
2022/04/14 01:45:10;;;;;;;16.55;11.93;;;11.70;99.90;;;;;;5108486;28;20100;-68
2022/04/14 01:47:43;;;;;;;19.00;12.02;;;11.60;99.90;;;;;;5101410;28;20043;-68
2022/04/14 01:50:12;;;;;;;19.10;12.88;;;11.60;99.90;;;;;;5126849;28;20047;-68
2022/04/14 01:52:39;;;;;;;18.35;12.80;;;11.50;99.90;;;;;;5127390;28;20139;-68
2022/04/14 01:55:06;;;;;;;18.05;12.32;;;11.50;99.90;;;;;;5126678;28;20096;-68
2022/04/14 01:57:32;;;;;;;19.85;12.35;;;11.50;99.90;;;;;;5121315;28;20044;-68
2022/04/14 02:00:01;;;;;;;19.33;12.77;;;11.50;99.90;;;;;;5109292;28;20055;-68
2022/04/14 02:02:27;;;;;;;20.55;12.75;;;11.50;99.90;;;;;;5096457;28;20067;-68
2022/04/14 02:04:53;;;;;;;18.17;12.30;;;11.40;99.90;;;;;;5102684;28;20123;-68
2022/04/14 02:07:18;;;;;;;22.73;13.00;;;11.40;99.90;;;;;;5128777;27;20043;-68
2022/04/14 02:09:44;;;;;;;22.10;14.07;;;11.40;99.90;;;;;;5126485;28;20428;-68
2022/04/14 02:12:11;;;;;;;22.20;12.60;;;11.30;99.90;;;;;;5109962;28;20051;-67
2022/04/14 02:14:37;;;;;;;20.77;13.55;;;11.30;99.90;;;;;;5128408;28;20514;-68
2022/04/14 02:17:03;;;;;;;19.70;12.77;;;11.30;99.90;;;;;;5108166;28;20039;-68
2022/04/14 02:19:29;;;;;;;20.17;12.73;;;11.20;99.90;;;;;;5127837;28;20040;-68
2022/04/14 02:21:58;;;;;;;24.80;13.85;;;11.10;99.90;;;;;;5101078;27;20123;-67
2022/04/14 02:24:24;;;;;;;20.42;13.57;;;11.10;99.90;;;;;;5087284;28;20043;-69
2022/04/14 02:26:49;;;;;;;21.98;13.38;;;11.10;99.90;;;;;;5091575;28;20154;-68
2022/04/14 02:29:15;;;;;;;22.15;13.63;;;11.10;99.90;;;;;;5111325;28;20043;-68
2022/04/14 02:31:40;;;;;;;18.02;13.52;;;11.10;99.90;;;;;;5111513;27;20048;-68
2022/04/14 02:34:06;;;;;;;22.85;14.30;;;11.10;99.90;;;;;;5112824;27;20040;-68
2022/04/14 02:36:31;;;;;;;19.77;14.38;;;11.10;99.90;;;;;;5117931;27;20039;-68
2022/04/14 02:38:57;;;;;;;20.35;14.48;;;11.10;99.90;;;;;;5084720;28;20040;-68
2022/04/14 02:41:23;;;;;;;22.98;15.20;;;12.00;99.90;;;;;;5113127;27;20050;-68
2022/04/14 02:43:49;;;;;;;25.33;14.70;;;11.00;99.90;;;;;;5112854;27;20448;-68
2022/04/14 02:46:16;;;;;;;23.77;14.50;;;11.90;99.90;;;;;;5112402;27;20115;-68
2022/04/14 02:48:41;;;;;;;27.88;14.75;;;10.90;99.90;;;;;;5131573;27;20058;-68
2022/04/14 02:51:07;;;;;;;23.55;14.23;;;10.90;99.90;;;;;;5112929;27;20484;-68
2022/04/14 02:53:32;;;;;;;24.58;15.32;;;10.90;99.90;;;;;;5131009;27;20066;-68
2022/04/14 02:55:58;;;;;;;27.23;15.30;;;10.80;99.90;;;;;;5130586;27;20070;-68
2022/04/14 02:58:24;;;;;;;25.23;16.45;;;10.80;99.90;;;;;;5113653;27;20042;-68
2022/04/14 03:00:49;;;;;;;24.58;16.20;;;10.80;99.90;;;;;;5129444;27;20039;-68
2022/04/14 03:03:16;;;;;;;23.50;16.50;;;10.80;99.90;;;;;;5102648;28;20036;-68
2022/04/14 03:05:42;;;;;;;25.05;17.00;;;11.30;99.90;;;;;;5110015;27;20086;-68
2022/04/14 03:08:07;;;;;;;27.50;17.17;;;10.70;99.90;;;;;;5130363;27;20071;-68
2022/04/14 03:10:33;;;;;;;25.23;16.55;;;10.70;99.90;;;;;;5117586;27;20043;-68
2022/04/14 03:12:59;;;;;;;26.10;16.95;;;10.60;99.90;;;;;;5112615;28;20398;-68
2022/04/14 03:15:24;;;;;;;23.20;15.73;;;10.60;99.90;;;;;;5110689;28;20039;-68
2022/04/14 03:17:50;;;;;;;27.70;16.77;;;10.60;99.90;;;;;;5110608;28;20041;-68
2022/04/14 03:20:17;;;;;;;26.20;17.52;;;10.60;99.90;;;;;;5110990;27;20086;-68
2022/04/14 03:22:43;;;;;;;27.30;16.77;;;10.60;99.90;;;;;;5121372;27;20043;-68
2022/04/14 03:25:10;;;;;;;24.67;17.48;;;10.60;99.90;;;;;;5130761;27;20555;-68
2022/04/14 03:27:39;;;;;;;29.13;17.10;;;10.60;99.90;;;;;;5112534;27;20046;-68
2022/04/14 03:30:07;;;;;;;27.92;17.50;;;10.80;99.90;;;;;;5131400;27;20526;-68
2022/04/14 03:32:38;;;;;;;26.25;17.67;;;10.50;99.90;;;;;;5129235;27;20047;-68
2022/04/14 03:35:04;;;;;;;24.63;17.05;;;10.50;99.90;;;;;;5129859;27;20039;-68
2022/04/14 03:37:30;;;;;;;31.75;18.30;;;10.40;99.90;;;;;;5111364;27;20088;-68
2022/04/14 03:39:55;;;;;;;28.05;19.27;;;10.60;99.90;;;;;;5108442;27;20050;-68
2022/04/14 03:42:21;;;;;;;31.20;19.60;;;10.40;99.90;;;;;;5109427;28;20496;-68
2022/04/14 03:44:46;;;;;;;28.38;19.00;;;10.30;99.90;;;;;;5109276;27;20101;-68
2022/04/14 03:47:12;;;;;;;29.13;18.85;;;10.30;99.90;;;;;;5129878;27;20046;-68
2022/04/14 03:49:38;;;;;;;32.33;20.33;;;10.30;99.90;;;;;;5119212;27;20075;-68
2022/04/14 03:52:04;;;;;;;31.45;19.88;;;10.30;99.90;;;;;;5091553;28;20059;-68
2022/04/14 03:54:29;;;;;;;30.73;20.45;;;10.20;99.90;;;;;;5108040;27;20040;-68
2022/04/14 03:56:55;;;;;;;29.25;20.33;;;10.20;99.90;;;;;;5128975;27;20050;-68
2022/04/14 03:59:21;;;;;;;32.45;21.60;;;10.10;99.90;;;;;;5127684;27;20046;-68
2022/04/14 04:01:46;;;;;;;29.55;21.20;;;10.00;99.90;;;;;;5110581;27;20039;-68
2022/04/14 04:04:12;;;;;;;32.58;21.77;;;10.00;99.90;;;;;;5109635;28;20038;-69
2022/04/14 04:06:37;;;;;;;29.55;20.92;;;10.00;99.90;;;;;;5122592;27;20340;-69
2022/04/14 04:09:03;;;;;;;32.60;21.80;;;10.10;99.90;;;;;;5111481;27;20131;-69
2022/04/14 04:11:29;;;;;;;34.50;22.67;;;10.00;99.90;;;;;;5110972;27;20519;-69
2022/04/14 04:13:54;;;;;;;32.25;22.77;;;10.00;99.90;;;;;;5108570;28;20372;-68
2022/04/14 04:16:20;;;;;;;35.67;23.65;;;10.00;99.90;;;;;;5125745;27;20062;-68
2022/04/14 04:18:46;;;;;;;37.88;23.27;;;11.10;99.90;;;;;;5093832;28;20031;-67
2022/04/14 04:21:11;;;;;;;32.42;21.83;;;9.90;99.90;;;;;;5105246;27;20156;-68
2022/04/14 04:23:37;;;;;;;33.95;22.98;;;9.90;99.90;;;;;;5110854;27;20054;-68
2022/04/14 04:26:02;;;;;;;35.60;23.48;;;9.90;99.90;;;;;;5128424;27;20088;-68
2022/04/14 04:28:30;;;;;;;36.72;23.75;;;9.90;99.90;;;;;;5129717;27;20479;-68
2022/04/14 04:30:59;;;;;;;36.78;23.25;;;9.90;99.90;;;;;;5127716;27;20130;-68
2022/04/14 04:33:25;;;;;;;39.00;24.55;;;11.00;99.90;;;;;;5118530;27;20032;-68
2022/04/14 04:35:51;;;;;;;39.50;26.08;;;10.70;99.90;;;;;;5108134;28;20040;-68
2022/04/14 04:38:16;;;;;;;39.13;25.20;;;9.80;99.90;;;;;;5090587;28;20475;-68
2022/04/14 04:40:42;;;;;;;36.00;24.20;;;9.80;99.90;;;;;;5123862;27;20116;-68
2022/04/14 04:43:14;;;;;;;37.42;24.38;;;9.70;99.90;;;;;;5120607;27;20047;-68
2022/04/14 04:45:40;;;;;;;37.78;24.48;;;9.70;99.90;;;;;;5115865;27;20105;-68
2022/04/14 04:48:06;;;;;;;34.53;24.23;;;9.80;99.90;;;;;;5112434;27;20043;-68
2022/04/14 04:50:31;;;;;;;38.33;24.67;;;9.70;99.90;;;;;;5127680;27;20061;-68
2022/04/14 04:52:57;;;;;;;38.13;24.98;;;9.80;99.90;;;;;;5107839;28;20027;-69
2022/04/14 04:55:23;;;;;;;37.97;24.75;;;10.20;99.90;;;;;;5107779;28;20059;-69
2022/04/14 04:57:48;;;;;;;38.35;25.58;;;9.70;99.90;;;;;;5108217;28;20474;-68
2022/04/14 05:00:14;;;;;;;36.28;24.48;;;9.60;99.90;;;;;;5088121;28;20103;-69
2022/04/14 05:02:41;;;;;;;41.85;25.08;;;9.60;99.90;;;;;;5107901;28;20044;-69
2022/04/14 05:05:07;;;;;;;38.67;25.67;;;9.60;99.90;;;;;;5128631;27;20066;-69
2022/04/14 05:07:32;;;;;;;41.85;26.80;;;9.60;99.90;;;;;;5128424;27;20039;-68
2022/04/14 05:09:58;;;;;;;42.28;26.20;;;9.60;99.90;;;;;;5128529;27;20447;-68
2022/04/14 05:12:24;;;;;;;39.17;25.50;;;9.70;99.90;;;;;;5092301;27;20042;-68
2022/04/14 05:14:49;;;;;;;45.75;25.95;;;9.60;99.90;;;;;;5092980;28;20036;-68
2022/04/14 05:17:15;;;;;;;42.10;26.48;;;9.60;99.90;;;;;;5123752;27;20081;-69
2022/04/14 05:19:40;;;;;;;41.75;27.45;;;9.60;99.90;;;;;;5126854;27;20051;-69
2022/04/14 05:22:06;;;;;;;36.45;25.27;;;9.60;99.90;;;;;;5116148;27;20071;-69
2022/04/14 05:24:32;;;;;;;39.42;26.35;;;9.60;99.90;;;;;;5123212;28;20055;-68
2022/04/14 05:26:58;;;;;;;38.90;26.73;;;9.70;99.90;;;;;;5126631;27;20126;-68
2022/04/14 05:29:24;;;;;;;42.63;26.65;;;9.80;99.90;;;;;;5129354;28;20075;-68
2022/04/14 05:31:50;;;;;;;43.28;27.08;;;9.80;99.90;;;;;;5126565;28;20068;-68
2022/04/14 05:34:15;;;;;;;40.40;26.85;;;9.90;99.90;;;;;;5128148;28;20046;-68
2022/04/14 05:36:41;;;;;;;39.85;25.70;;;9.90;99.90;;;;;;5126000;28;20100;-68
2022/04/14 05:39:06;;;;;;;37.38;25.17;;;10.00;99.90;;;;;;5125464;27;20111;-67
2022/04/14 05:41:32;;;;;;;40.17;26.60;;;10.10;99.90;;;;;;5117369;28;20040;-68
2022/04/14 05:43:58;;;;;;;37.33;24.65;;;10.20;99.90;;;;;;5105581;28;20083;-68
2022/04/14 05:46:24;;;;;;;44.95;27.15;;;10.30;99.90;;;;;;5085436;28;20039;-69
2022/04/14 05:48:51;;;;;;;41.90;26.90;;;10.30;99.90;;;;;;5123921;28;20115;-69
2022/04/14 05:51:17;;;;;;;43.42;27.48;;;10.30;99.90;;;;;;5129886;28;20050;-68
2022/04/14 05:53:42;;;;;;;36.72;26.00;;;10.40;99.90;;;;;;5091342;28;20055;-68
2022/04/14 05:56:08;;;;;;;40.45;26.25;;;10.40;99.90;;;;;;5094745;28;20044;-69
2022/04/14 05:58:34;;;;;;;36.38;26.42;;;10.50;99.90;;;;;;5086206;28;20129;-69
2022/04/14 06:01:00;;;;;;;41.15;26.48;;;10.50;99.90;;;;;;5088405;28;20554;-68
2022/04/14 06:03:26;;;;;;;38.58;25.02;;;10.60;99.90;;;;;;5090570;28;20036;-68
2022/04/14 06:05:52;;;;;;;42.92;26.35;;;11.20;99.90;;;;;;5095216;28;20048;-68
2022/04/14 06:08:19;;;;;;;39.30;26.63;;;10.60;99.90;;;;;;5091386;28;20048;-68
2022/04/14 06:10:44;;;;;;;39.05;26.42;;;10.60;99.90;;;;;;5088575;28;20048;-68
2022/04/14 06:13:11;;;;;;;36.72;25.90;;;10.60;99.90;;;;;;5092421;28;20093;-68
2022/04/14 06:15:37;;;;;;;43.05;28.52;;;10.60;99.90;;;;;;5089436;28;20430;-68
2022/04/14 06:18:03;;;;;;;45.47;26.55;;;10.70;99.90;;;;;;5090342;28;20051;-68
2022/04/14 06:20:28;;;;;;;39.83;27.92;;;10.70;99.90;;;;;;5089959;28;20032;-68
2022/04/14 06:22:58;;;;;;;39.00;26.67;;;10.80;99.90;;;;;;5069747;28;20056;-69
2022/04/14 06:25:24;;;;;;;36.05;25.35;;;11.00;99.90;;;;;;5070081;28;20116;-69
2022/04/14 06:27:51;;;;;;;38.83;25.30;;;11.20;99.90;;;;;;5069360;28;20788;-68
2022/04/14 06:30:18;;;;;;;40.90;26.10;;;11.40;99.90;;;;;;5068842;28;20475;-69
2022/04/14 06:32:58;;;;;;;37.78;25.50;;;11.40;99.90;;;;;;5070773;28;20068;-69
2022/04/14 06:35:24;;;;;;;36.60;25.27;;;11.50;99.90;;;;;;5073417;28;20071;-69
2022/04/14 06:37:50;;;;;;;41.33;26.17;;;11.50;99.90;;;;;;5069891;28;20042;-69
2022/04/14 06:40:15;;;;;;;39.58;25.52;;;12.40;99.90;;;;;;5085265;28;20551;-69
2022/04/14 06:42:41;;;;;;;37.70;25.80;;;11.60;99.90;;;;;;5097171;28;20116;-69
2022/04/14 06:45:07;;;;;;;38.63;24.73;;;11.70;99.90;;;;;;5087179;28;20093;-68
2022/04/14 06:47:33;;;;;;;38.13;24.45;;;11.80;99.90;;;;;;5091523;28;20149;-69
2022/04/14 06:49:59;;;;;;;36.53;23.67;;;11.70;99.90;;;;;;5090415;28;20460;-68
2022/04/14 06:52:24;;;;;;;33.22;23.02;;;12.90;99.90;;;;;;5088620;28;20134;-70
2022/04/14 06:54:50;;;;;;;36.50;23.20;;;12.90;99.90;;;;;;5109618;27;20123;-69
2022/04/14 06:57:16;;;;;;;35.75;22.73;;;12.20;99.90;;;;;;5108261;28;20493;-68
2022/04/14 06:59:42;;;;;;;30.17;20.45;;;12.30;99.90;;;;;;5108444;28;20043;-68
2022/04/14 07:02:08;;;;;;;34.75;21.83;;;13.10;99.90;;;;;;5111253;28;20103;-68
2022/04/14 07:04:34;;;;;;;31.17;20.30;;;12.30;99.90;;;;;;5110084;28;20552;-69
2022/04/14 07:07:00;;;;;;;31.58;21.00;;;12.40;99.90;;;;;;5091264;28;20056;-71
2022/04/14 07:09:29;;;;;;;29.42;19.63;;;12.50;99.90;;;;;;5110440;28;20118;-69
2022/04/14 07:11:56;;;;;;;29.75;20.17;;;12.50;99.90;;;;;;5107998;28;20140;-70
2022/04/14 07:14:21;;;;;;;33.63;20.55;;;12.60;99.90;;;;;;5109391;28;20035;-69
2022/04/14 07:16:47;;;;;;;27.13;19.98;;;12.70;99.90;;;;;;5105241;28;20044;-70
2022/04/14 07:19:12;;;;;;;31.35;20.05;;;12.70;99.90;;;;;;5091900;28;20051;-69
2022/04/14 07:21:38;;;;;;;31.58;20.92;;;12.80;99.90;;;;;;5091840;28;20043;-69
2022/04/14 07:24:04;;;;;;;31.85;19.85;;;12.80;99.90;;;;;;5106338;28;20481;-69
2022/04/14 07:26:29;;;;;;;27.58;20.15;;;12.90;99.90;;;;;;5089095;28;20073;-70
2022/04/14 07:28:55;;;;;;;31.85;20.25;;;12.90;99.90;;;;;;5088855;28;20398;-70
2022/04/14 07:31:21;;;;;;;30.48;20.13;;;13.10;99.90;;;;;;5094073;27;20472;-69
2022/04/14 07:33:46;;;;;;;27.13;18.60;;;13.20;99.90;;;;;;5115954;27;20040;-68
2022/04/14 07:36:18;;;;;;;26.40;18.95;;;13.30;99.90;;;;;;5109555;27;20036;-69
2022/04/14 07:38:44;;;;;;;29.35;19.65;;;13.40;99.90;;;;;;5109181;28;20035;-70
2022/04/14 07:41:09;;;;;;;26.52;19.10;;;13.60;99.90;;;;;;5109134;27;20427;-69
2022/04/14 07:43:35;;;;;;;29.85;19.95;;;13.70;99.90;;;;;;5102716;27;20039;-70
2022/04/14 07:46:01;;;;;;;28.00;19.58;;;13.80;99.90;;;;;;5089056;28;20055;-69
2022/04/14 07:48:27;;;;;;;27.73;19.25;;;13.90;99.90;;;;;;5105629;27;20130;-68
2022/04/14 07:50:52;;;;;;;28.40;19.35;;;14.00;99.90;;;;;;5116358;27;20070;-71
2022/04/14 07:53:18;;;;;;;28.20;19.45;;;14.20;99.90;;;;;;5105131;28;20044;-70
2022/04/14 07:55:43;;;;;;;27.92;19.83;;;14.30;99.90;;;;;;5107321;27;20083;-69
2022/04/14 07:58:10;;;;;;;29.58;20.17;;;14.40;99.90;;;;;;5090564;28;20373;-70
2022/04/14 08:00:37;;;;;;;27.45;19.63;;;14.50;99.90;;;;;;5090779;27;20047;-69
2022/04/14 08:03:04;;;;;;;26.27;19.13;;;14.60;99.90;;;;;;5126876;27;20499;-70
2022/04/14 08:05:34;;;;;;;27.30;20.02;;;14.70;99.90;;;;;;5113001;27;20548;-71
2022/04/14 08:08:04;;;;;;;28.23;18.77;;;14.70;99.90;;;;;;5099074;27;20052;-70
2022/04/14 08:10:30;;;;;;;26.92;19.40;;;14.90;99.90;;;;;;5111372;27;20048;-70
2022/04/14 08:12:56;;;;;;;24.50;17.85;;;15.40;99.90;;;;;;5107384;27;20055;-70
2022/04/14 08:15:25;;;;;;;26.50;18.38;;;15.10;99.90;;;;;;5107926;27;20036;-70
2022/04/14 08:17:51;;;;;;;23.52;18.05;;;15.20;99.90;;;;;;5090263;28;20040;-70
2022/04/14 08:20:17;;;;;;;25.08;18.25;;;15.40;99.90;;;;;;5109091;28;20054;-69
2022/04/14 08:22:54;;;;;;;25.58;17.08;;;15.50;99.90;;;;;;5072882;28;20092;-69
2022/04/14 08:25:20;;;;;;;23.48;17.00;;;15.60;99.90;;;;;;5107951;28;20134;-70
2022/04/14 08:27:47;;;;;;;24.17;18.08;;;15.70;99.90;;;;;;5108193;28;20044;-71
2022/04/14 08:30:17;;;;;;;21.98;16.63;;;15.90;99.90;;;;;;5088919;28;20122;-68
2022/04/14 08:32:43;;;;;;;23.02;16.60;;;16.00;99.90;;;;;;5108440;28;20047;-67
2022/04/14 08:35:10;;;;;;;21.75;16.88;;;16.10;99.90;;;;;;5109129;27;20139;-67
2022/04/14 08:37:36;;;;;;;21.67;16.73;;;16.20;99.90;;;;;;5112256;27;20087;-68
2022/04/14 08:40:06;;;;;;;21.02;15.55;;;17.00;99.90;;;;;;5130054;27;20059;-68
2022/04/14 08:42:39;;;;;;;22.02;16.70;;;16.40;99.90;;;;;;5093822;27;20043;-70
2022/04/14 08:45:09;;;;;;;21.23;16.13;;;16.40;99.90;;;;;;5090889;28;20047;-69
2022/04/14 08:47:36;;;;;;;21.85;16.13;;;16.50;99.90;;;;;;5055831;27;20047;-68
2022/04/14 08:50:05;;;;;;;20.90;15.63;;;16.70;99.90;;;;;;5123689;27;20051;-67
2022/04/14 08:52:36;;;;;;;19.40;14.90;;;16.80;99.90;;;;;;5115619;27;20483;-67
2022/04/14 08:55:04;;;;;;;20.80;15.40;;;17.00;99.90;;;;;;5128710;27;20059;-68
2022/04/14 08:57:31;;;;;;;21.48;15.27;;;17.10;99.90;;;;;;5092824;27;20479;-67
2022/04/14 08:59:58;;;;;;;19.23;13.85;;;17.10;99.90;;;;;;5126987;27;20105;-67
2022/04/14 09:02:26;;;;;;;21.13;14.90;;;17.30;99.90;;;;;;5119429;27;20088;-69
2022/04/14 09:04:51;;;;;;;18.73;13.85;;;17.30;99.90;;;;;;5086802;28;20036;-68
2022/04/14 09:07:17;;;;;;;21.35;13.48;;;17.50;99.90;;;;;;5090195;28;20043;-68
2022/04/14 09:09:44;;;;;;;18.67;12.85;;;17.70;99.90;;;;;;5089393;28;20561;-68
2022/04/14 09:12:11;;;;;;;13.52;8.85;;;17.80;99.90;;;;;;5103047;28;20370;-68
2022/04/14 09:14:37;;;;;;;13.85;9.20;;;17.90;99.90;;;;;;5067697;28;20431;-68
2022/04/14 09:17:06;;;;;;;12.63;9.45;;;18.00;99.90;;;;;;5087815;28;20036;-67
2022/04/14 09:19:34;;;;;;;14.43;9.13;;;18.20;99.90;;;;;;5087497;28;20036;-68
2022/04/14 09:22:07;;;;;;;15.80;9.63;;;18.80;99.90;;;;;;5101255;28;20058;-68
2022/04/14 09:24:39;;;;;;;13.15;9.30;;;18.70;99.90;;;;;;5089538;28;20406;-68
2022/04/14 09:27:05;;;;;;;16.52;10.07;;;19.60;99.90;;;;;;5107579;28;20059;-67
2022/04/14 09:29:31;;;;;;;15.43;9.50;;;22.00;99.90;;;;;;5105937;28;20500;-68
2022/04/14 09:31:57;;;;;;;12.00;8.98;;;24.10;99.90;;;;;;5107853;28;20063;-68
2022/04/14 09:34:48;;;;;;;12.80;8.20;;;26.20;96.90;;;;;;5106663;28;20036;-67
2022/04/14 09:37:15;;;;;;;11.68;8.30;;;28.40;95.80;;;;;;5091774;28;20059;-67
2022/04/14 09:40:00;;;;;;;11.90;7.65;;;29.90;92.00;;;;;;5056131;28;20439;-68
2022/04/14 09:42:28;;;;;;;11.48;7.70;;;30.40;90.10;;;;;;5092144;28;20544;-68
2022/04/14 09:44:54;;;;;;;8.57;6.43;;;31.50;81.40;;;;;;5089933;28;20047;-67
2022/04/14 09:47:24;;;;;;;11.13;7.40;;;32.40;76.10;;;;;;5092014;28;20044;-67
2022/04/14 09:49:50;;;;;;;9.45;6.45;;;33.50;72.80;;;;;;5110991;27;20471;-67
2022/04/14 09:52:15;;;;;;;12.27;6.78;;;34.00;71.30;;;;;;5113511;27;20044;-67
2022/04/14 09:54:41;;;;;;;9.32;6.80;;;33.20;65.80;;;;;;5108703;28;20397;-67
2022/04/14 09:57:11;;;;;;;11.00;7.85;;;31.30;65.90;;;;;;5109569;27;20039;-67
2022/04/14 09:59:37;;;;;;;10.40;7.43;;;29.80;67.40;;;;;;5091663;28;20147;-67
2022/04/14 10:02:14;;;;;;;10.80;6.65;;;30.10;71.00;;;;;;5076778;28;20065;-68
2022/04/14 10:04:42;;;;;;;10.23;6.53;;;29.70;69.30;;;;;;5110673;28;20051;-68
2022/04/14 10:07:16;;;;;;;11.25;6.60;;;28.70;70.20;;;;;;5112016;28;20148;-67
2022/04/14 10:09:46;;;;;;;12.55;6.60;;;29.70;73.20;;;;;;5089329;28;20055;-67
2022/04/14 10:12:17;;;;;;;11.73;6.40;;;31.90;71.20;;;;;;5107521;28;20059;-67
2022/04/14 10:15:08;;;;;;;8.70;5.97;;;33.80;66.90;;;;;;5105455;28;20343;-68
2022/04/14 10:17:37;;;;;;;10.02;5.72;;;35.30;63.40;;;;;;5108292;28;20050;-67
2022/04/14 10:20:05;;;;;;;9.57;6.60;;;36.80;62.10;;;;;;5107959;28;20047;-67
2022/04/14 10:22:31;;;;;;;8.35;6.22;;;37.10;57.30;;;;;;5070249;28;20048;-67
2022/04/14 10:24:58;;;;;;;9.90;6.03;;;37.10;57.90;;;;;;5085934;28;20468;-66
2022/04/14 10:27:25;;;;;;;7.80;5.35;;;37.00;56.40;;;;;;5103803;28;20045;-66
2022/04/14 10:29:52;;;;;;;7.47;5.25;;;36.70;55.40;;;;;;5104582;28;20051;-67
2022/04/14 10:32:18;;;;;;;8.70;5.40;;;35.40;53.40;;;;;;5108447;28;20236;-67
2022/04/14 10:34:46;;;;;;;7.72;5.50;;;34.60;54.00;;;;;;5106424;28;20044;-67
2022/04/14 10:37:18;;;;;;;7.97;4.88;;;32.70;55.20;;;;;;5106954;28;20051;-67
2022/04/14 10:39:48;;;;;;;7.47;4.30;;;31.30;56.60;;;;;;5088230;28;20053;-67
2022/04/14 10:42:18;;;;;;;7.00;4.13;;;32.00;57.30;;;;;;5108936;28;20116;-67
2022/04/14 10:44:52;;;;;;;6.72;3.85;;;33.80;56.30;;;;;;5086476;28;20503;-67
2022/04/14 10:47:42;;;;;;;6.97;4.10;;;34.90;55.80;;;;;;5106051;28;20440;-69
2022/04/14 10:50:32;;;;;;;6.40;3.95;;;34.10;53.40;;;;;;5106588;28;20070;-69
2022/04/14 10:53:13;;;;;;;6.72;4.13;;;32.80;55.00;;;;;;5068432;28;20048;-69
2022/04/14 10:55:47;;;;;;;5.85;3.40;;;32.60;54.90;;;;;;5067892;28;20125;-70
2022/04/14 10:58:40;;;;;;;5.03;3.40;;;31.80;54.70;;;;;;5085992;28;20040;-70
2022/04/14 11:01:07;;;;;;;6.40;3.42;;;32.60;54.90;;;;;;5085933;28;20052;-70
2022/04/14 11:03:52;;;;;;;5.30;2.90;;;33.20;54.40;;;;;;5087259;28;20381;-71
2022/04/14 11:06:36;;;;;;;;;;;34.90;53.10;;;;;;5080068;28;20050;-69
2022/04/14 11:09:02;;;;;;;5.88;3.20;;;36.40;52.20;;;;;;5088600;28;19974;-69
2022/04/14 11:11:27;;;;;;;5.75;3.67;;;37.80;50.90;;;;;;5121680;27;20087;-70
2022/04/14 11:13:54;;;;;;;6.05;3.00;;;39.10;50.20;;;;;;5096385;28;20660;-69
2022/04/14 11:16:39;;;;;;;5.50;2.50;;;40.00;49.10;;;;;;5086826;28;20051;-69
2022/04/14 11:19:26;;;;;;;4.97;2.20;;;40.50;47.00;;;;;;5087229;27;20437;-66
2022/04/14 11:22:01;;;;;;;6.38;3.70;;;40.60;46.50;;;;;;5101784;27;20050;-66
2022/04/14 11:24:36;;;;;;;7.88;4.20;;;40.90;45.90;;;;;;5103835;28;20079;-66
2022/04/14 11:27:11;;;;;;;8.88;4.20;;;39.20;46.10;;;;;;5090429;28;20122;-67
2022/04/14 11:29:42;;;;;;;8.60;4.20;;;37.00;47.00;;;;;;5091690;28;20126;-66
2022/04/14 11:32:08;;;;;;;8.07;4.38;;;37.20;47.60;;;;;;5091252;28;20475;-65
2022/04/14 11:34:36;;;;;;;5.43;3.50;;;38.30;47.20;;;;;;5112614;28;20492;-66
2022/04/14 11:37:02;;;;;;;7.32;2.80;;;38.70;46.60;;;;;;5110076;28;20090;-66
2022/04/14 11:39:29;;;;;;;4.90;2.95;;;37.60;45.60;;;;;;5109626;28;20381;-66
2022/04/14 11:42:07;;;;;;;5.53;2.83;;;37.40;45.90;;;;;;5108944;28;20130;-66
2022/04/14 11:44:32;;;;;;;5.78;2.80;;;37.70;45.40;;;;;;5091155;28;20047;-66
2022/04/14 11:47:00;;;;;;;4.90;2.60;;;37.80;45.30;;;;;;5090309;28;20963;-66
2022/04/14 11:49:33;;;;;;;6.57;3.25;;;37.40;46.10;;;;;;5110219;28;20515;-66
2022/04/14 11:52:05;;;;;;;5.55;3.25;;;37.50;45.90;;;;;;5109901;28;20043;-66
2022/04/14 11:54:31;;;;;;;7.55;3.60;;;37.40;45.70;;;;;;5108663;28;20054;-66
2022/04/14 11:56:59;;;;;;;6.15;3.60;;;37.30;45.90;;;;;;5088566;28;20060;-66
2022/04/14 11:59:35;;;;;;;6.28;3.53;;;36.80;46.50;;;;;;5087797;28;20044;-66
2022/04/14 12:02:06;;;;;;;6.25;3.80;;;36.40;46.80;;;;;;5088182;28;20067;-66
2022/04/14 12:04:43;;;;;;;5.80;3.40;;;35.50;47.30;;;;;;5104759;28;20036;-66
2022/04/14 12:07:10;;;;;;;6.55;3.72;;;34.30;47.10;;;;;;5088463;28;20044;-66
2022/04/14 12:09:37;;;;;;;5.53;3.70;;;33.10;48.20;;;;;;5089691;28;20048;-67
2022/04/14 12:12:17;;;;;;;7.72;3.60;;;32.50;49.20;;;;;;5088715;28;20044;-66
2022/04/14 12:14:44;;;;;;;6.63;3.50;;;31.90;50.20;;;;;;5068760;28;20488;-67
2022/04/14 12:17:10;;;;;;;5.63;3.13;;;31.60;50.90;;;;;;5089174;28;20409;-67
2022/04/14 12:20:00;;;;;;;6.65;3.30;;;30.70;51.80;;;;;;5089153;28;20067;-67
2022/04/14 12:22:29;;;;;;;5.63;2.92;;;30.00;52.30;;;;;;5077960;28;20047;-69
2022/04/14 12:25:00;;;;;;;12.45;3.47;;;29.60;52.90;;;;;;5088074;28;20047;-67
2022/04/14 12:27:30;;;;;;;5.03;2.85;;;29.10;53.30;;;;;;5084133;27;20039;-67
2022/04/14 12:30:03;;;;;;;5.38;2.60;;;28.40;53.60;;;;;;5112531;27;20427;-67
2022/04/14 12:32:29;;;;;;;6.88;3.03;;;27.60;53.70;;;;;;5109549;28;20043;-67
2022/04/14 12:34:56;;;;;;;5.60;3.03;;;26.60;55.30;;;;;;5108185;27;20035;-67